sensor_id;sensor_type;location;lat;lon;timestamp;P1;durP1;ratioP1;P2;durP2;ratioP2
49223;SDS011;35050;51.316;5.994;2023-03-02T00:08:00;5.78;;;3.10;;
49223;SDS011;35050;51.316;5.994;2023-03-02T00:21:30;3.97;;;2.85;;
49223;SDS011;35050;51.316;5.994;2023-03-02T00:28:22;3.60;;;2.60;;
49223;SDS011;35050;51.316;5.994;2023-03-02T00:35:21;3.88;;;2.55;;
49223;SDS011;35050;51.316;5.994;2023-03-02T00:42:08;4.43;;;3.30;;
49223;SDS011;35050;51.316;5.994;2023-03-02T00:51:42;5.47;;;3.45;;
49223;SDS011;35050;51.316;5.994;2023-03-02T00:58:37;5.60;;;3.10;;
49223;SDS011;35050;51.316;5.994;2023-03-02T01:29:25;4.90;;;2.88;;
49223;SDS011;35050;51.316;5.994;2023-03-02T01:36:10;4.60;;;3.08;;
49223;SDS011;35050;51.316;5.994;2023-03-02T02:04:25;3.85;;;2.78;;
49223;SDS011;35050;51.316;5.994;2023-03-02T02:08:04;5.80;;;3.10;;
49223;SDS011;35050;51.316;5.994;2023-03-02T02:21:37;4.15;;;3.05;;
49223;SDS011;35050;51.316;5.994;2023-03-02T02:44:56;5.22;;;3.75;;
49223;SDS011;35050;51.316;5.994;2023-03-02T02:59:37;4.85;;;3.25;;
49223;SDS011;35050;51.316;5.994;2023-03-02T03:11:02;5.47;;;3.33;;
49223;SDS011;35050;51.316;5.994;2023-03-02T03:21:20;4.10;;;2.85;;
49223;SDS011;35050;51.316;5.994;2023-03-02T03:24:11;5.00;;;3.30;;
49223;SDS011;35050;51.316;5.994;2023-03-02T03:31:12;5.03;;;2.90;;
49223;SDS011;35050;51.316;5.994;2023-03-02T03:34:23;4.65;;;3.15;;
49223;SDS011;35050;51.316;5.994;2023-03-02T03:41:26;6.28;;;3.00;;
49223;SDS011;35050;51.316;5.994;2023-03-02T03:58:12;4.10;;;2.70;;
49223;SDS011;35050;51.316;5.994;2023-03-02T04:23:03;4.38;;;3.10;;
49223;SDS011;35050;51.316;5.994;2023-03-02T04:29:43;4.88;;;2.95;;
49223;SDS011;35050;51.316;5.994;2023-03-02T04:32:32;4.03;;;2.92;;
49223;SDS011;35050;51.316;5.994;2023-03-02T04:35:44;4.15;;;2.80;;
49223;SDS011;35050;51.316;5.994;2023-03-02T04:42:32;4.72;;;2.45;;
49223;SDS011;35050;51.316;5.994;2023-03-02T04:53:02;7.95;;;2.85;;
49223;SDS011;35050;51.316;5.994;2023-03-02T04:55:58;4.13;;;2.70;;
49223;SDS011;35050;51.316;5.994;2023-03-02T04:59:10;4.25;;;2.85;;
49223;SDS011;35050;51.316;5.994;2023-03-02T05:02:40;5.78;;;3.20;;
49223;SDS011;35050;51.316;5.994;2023-03-02T05:19:43;4.70;;;2.70;;
49223;SDS011;35050;51.316;5.994;2023-03-02T05:44:37;4.93;;;3.10;;
49223;SDS011;35050;51.316;5.994;2023-03-02T06:01:37;6.05;;;3.25;;
49223;SDS011;35050;51.316;5.994;2023-03-02T06:04:56;4.25;;;2.90;;
49223;SDS011;35050;51.316;5.994;2023-03-02T06:11:24;4.25;;;2.90;;
49223;SDS011;35050;51.316;5.994;2023-03-02T06:14:38;4.63;;;3.30;;
49223;SDS011;35050;51.316;5.994;2023-03-02T06:18:05;5.20;;;2.88;;
49223;SDS011;35050;51.316;5.994;2023-03-02T06:25:03;4.75;;;2.80;;
49223;SDS011;35050;51.316;5.994;2023-03-02T06:32:01;3.20;;;2.40;;
49223;SDS011;35050;51.316;5.994;2023-03-02T06:38:37;4.68;;;2.97;;
49223;SDS011;35050;51.316;5.994;2023-03-02T06:41:50;4.88;;;3.03;;
49223;SDS011;35050;51.316;5.994;2023-03-02T06:45:11;4.55;;;3.03;;
49223;SDS011;35050;51.316;5.994;2023-03-02T06:47:38;6.18;;;3.22;;
49223;SDS011;35050;51.316;5.994;2023-03-02T06:50:04;4.03;;;2.70;;
49223;SDS011;35050;51.316;5.994;2023-03-02T06:52:31;5.97;;;2.97;;
49223;SDS011;35050;51.316;5.994;2023-03-02T06:54:59;5.03;;;3.00;;
49223;SDS011;35050;51.316;5.994;2023-03-02T06:57:25;3.78;;;2.75;;
49223;SDS011;35050;51.316;5.994;2023-03-02T06:59:57;4.50;;;2.70;;
49223;SDS011;35050;51.316;5.994;2023-03-02T07:02:31;4.50;;;2.95;;
49223;SDS011;35050;51.316;5.994;2023-03-02T07:04:57;4.65;;;2.90;;
49223;SDS011;35050;51.316;5.994;2023-03-02T07:07:22;5.05;;;3.22;;
49223;SDS011;35050;51.316;5.994;2023-03-02T07:09:48;6.30;;;3.00;;
49223;SDS011;35050;51.316;5.994;2023-03-02T07:12:13;5.68;;;3.17;;
49223;SDS011;35050;51.316;5.994;2023-03-02T07:14:39;5.38;;;3.42;;
49223;SDS011;35050;51.316;5.994;2023-03-02T07:17:05;5.75;;;3.53;;
49223;SDS011;35050;51.316;5.994;2023-03-02T07:19:30;6.00;;;3.70;;
49223;SDS011;35050;51.316;5.994;2023-03-02T07:21:57;4.80;;;3.40;;
49223;SDS011;35050;51.316;5.994;2023-03-02T07:24:22;7.15;;;3.50;;
49223;SDS011;35050;51.316;5.994;2023-03-02T07:26:48;6.35;;;4.03;;
49223;SDS011;35050;51.316;5.994;2023-03-02T07:29:13;5.53;;;3.50;;
49223;SDS011;35050;51.316;5.994;2023-03-02T07:31:39;6.22;;;3.08;;
49223;SDS011;35050;51.316;5.994;2023-03-02T07:34:07;8.10;;;4.00;;
49223;SDS011;35050;51.316;5.994;2023-03-02T07:36:33;7.82;;;4.60;;
49223;SDS011;35050;51.316;5.994;2023-03-02T07:38:58;9.52;;;4.75;;
49223;SDS011;35050;51.316;5.994;2023-03-02T07:41:26;8.18;;;4.95;;
49223;SDS011;35050;51.316;5.994;2023-03-02T07:43:52;6.50;;;4.32;;
49223;SDS011;35050;51.316;5.994;2023-03-02T07:46:17;9.00;;;4.20;;
49223;SDS011;35050;51.316;5.994;2023-03-02T07:48:43;6.18;;;3.95;;
49223;SDS011;35050;51.316;5.994;2023-03-02T07:51:09;6.60;;;3.92;;
49223;SDS011;35050;51.316;5.994;2023-03-02T07:53:34;6.20;;;3.88;;
49223;SDS011;35050;51.316;5.994;2023-03-02T07:56:04;6.38;;;4.40;;
49223;SDS011;35050;51.316;5.994;2023-03-02T07:58:30;5.85;;;4.25;;
49223;SDS011;35050;51.316;5.994;2023-03-02T08:00:56;7.28;;;4.60;;
49223;SDS011;35050;51.316;5.994;2023-03-02T08:03:22;7.10;;;3.75;;
49223;SDS011;35050;51.316;5.994;2023-03-02T08:05:47;6.13;;;3.78;;
49223;SDS011;35050;51.316;5.994;2023-03-02T08:08:13;5.93;;;3.92;;
49223;SDS011;35050;51.316;5.994;2023-03-02T08:10:38;6.68;;;4.03;;
49223;SDS011;35050;51.316;5.994;2023-03-02T08:13:04;5.68;;;4.15;;
49223;SDS011;35050;51.316;5.994;2023-03-02T08:15:30;6.10;;;4.03;;
49223;SDS011;35050;51.316;5.994;2023-03-02T08:17:55;7.40;;;5.03;;
49223;SDS011;35050;51.316;5.994;2023-03-02T08:20:21;6.93;;;4.78;;
49223;SDS011;35050;51.316;5.994;2023-03-02T08:22:46;6.10;;;4.43;;
49223;SDS011;35050;51.316;5.994;2023-03-02T08:25:12;6.78;;;4.50;;
49223;SDS011;35050;51.316;5.994;2023-03-02T08:27:38;6.70;;;4.50;;
49223;SDS011;35050;51.316;5.994;2023-03-02T08:30:06;8.23;;;4.40;;
49223;SDS011;35050;51.316;5.994;2023-03-02T08:32:33;8.70;;;4.68;;
49223;SDS011;35050;51.316;5.994;2023-03-02T08:34:59;9.07;;;5.45;;
49223;SDS011;35050;51.316;5.994;2023-03-02T08:37:24;7.65;;;5.00;;
49223;SDS011;35050;51.316;5.994;2023-03-02T08:39:50;7.68;;;5.15;;
49223;SDS011;35050;51.316;5.994;2023-03-02T08:42:16;7.63;;;5.20;;
49223;SDS011;35050;51.316;5.994;2023-03-02T08:44:42;8.63;;;5.25;;
49223;SDS011;35050;51.316;5.994;2023-03-02T08:47:08;9.07;;;5.85;;
49223;SDS011;35050;51.316;5.994;2023-03-02T08:49:33;11.43;;;5.65;;
49223;SDS011;35050;51.316;5.994;2023-03-02T08:52:01;7.28;;;5.15;;
49223;SDS011;35050;51.316;5.994;2023-03-02T08:54:27;7.22;;;4.80;;
49223;SDS011;35050;51.316;5.994;2023-03-02T08:56:53;8.48;;;5.60;;
49223;SDS011;35050;51.316;5.994;2023-03-02T08:59:19;7.88;;;5.10;;
49223;SDS011;35050;51.316;5.994;2023-03-02T09:01:45;8.50;;;5.30;;
49223;SDS011;35050;51.316;5.994;2023-03-02T09:04:11;10.52;;;5.22;;
49223;SDS011;35050;51.316;5.994;2023-03-02T09:06:38;9.45;;;5.43;;
49223;SDS011;35050;51.316;5.994;2023-03-02T09:09:05;7.75;;;5.22;;
49223;SDS011;35050;51.316;5.994;2023-03-02T09:11:32;8.20;;;5.30;;
49223;SDS011;35050;51.316;5.994;2023-03-02T09:13:58;8.60;;;4.47;;
49223;SDS011;35050;51.316;5.994;2023-03-02T09:16:23;7.78;;;5.13;;
49223;SDS011;35050;51.316;5.994;2023-03-02T09:18:50;7.50;;;5.05;;
49223;SDS011;35050;51.316;5.994;2023-03-02T09:21:16;8.43;;;5.40;;
49223;SDS011;35050;51.316;5.994;2023-03-02T09:23:42;8.07;;;5.57;;
49223;SDS011;35050;51.316;5.994;2023-03-02T09:26:08;8.48;;;5.10;;
49223;SDS011;35050;51.316;5.994;2023-03-02T09:28:34;10.20;;;5.88;;
49223;SDS011;35050;51.316;5.994;2023-03-02T09:31:01;8.55;;;5.78;;
49223;SDS011;35050;51.316;5.994;2023-03-02T09:33:29;9.25;;;5.68;;
49223;SDS011;35050;51.316;5.994;2023-03-02T09:35:55;7.53;;;5.40;;
49223;SDS011;35050;51.316;5.994;2023-03-02T09:38:21;7.60;;;5.15;;
49223;SDS011;35050;51.316;5.994;2023-03-02T09:43:48;12.02;;;5.80;;
49223;SDS011;35050;51.316;5.994;2023-03-02T09:46:39;9.90;;;5.32;;
49223;SDS011;35050;51.316;5.994;2023-03-02T09:52:31;8.18;;;5.00;;
49223;SDS011;35050;51.316;5.994;2023-03-02T09:55:14;8.43;;;5.32;;
49223;SDS011;35050;51.316;5.994;2023-03-02T09:57:46;9.88;;;5.38;;
49223;SDS011;35050;51.316;5.994;2023-03-02T10:00:13;10.07;;;5.40;;
49223;SDS011;35050;51.316;5.994;2023-03-02T10:02:49;8.02;;;5.40;;
49223;SDS011;35050;51.316;5.994;2023-03-02T10:05:28;7.13;;;5.20;;
49223;SDS011;35050;51.316;5.994;2023-03-02T10:07:58;8.52;;;5.28;;
49223;SDS011;35050;51.316;5.994;2023-03-02T10:10:44;9.77;;;5.60;;
49223;SDS011;35050;51.316;5.994;2023-03-02T10:13:25;11.13;;;6.90;;
49223;SDS011;35050;51.316;5.994;2023-03-02T10:18:35;11.35;;;6.07;;
49223;SDS011;35050;51.316;5.994;2023-03-02T10:21:36;11.65;;;6.38;;
49223;SDS011;35050;51.316;5.994;2023-03-02T10:26:38;9.90;;;5.80;;
49223;SDS011;35050;51.316;5.994;2023-03-02T10:31:49;11.70;;;6.28;;
49223;SDS011;35050;51.316;5.994;2023-03-02T10:34:23;12.35;;;6.78;;
49223;SDS011;35050;51.316;5.994;2023-03-02T10:36:53;10.57;;;6.45;;
49223;SDS011;35050;51.316;5.994;2023-03-02T10:39:19;9.80;;;6.10;;
49223;SDS011;35050;51.316;5.994;2023-03-02T10:42:19;9.18;;;5.60;;
49223;SDS011;35050;51.316;5.994;2023-03-02T10:44:55;8.27;;;5.70;;
49223;SDS011;35050;51.316;5.994;2023-03-02T10:47:26;9.73;;;5.88;;
49223;SDS011;35050;51.316;5.994;2023-03-02T10:49:54;10.15;;;6.53;;
49223;SDS011;35050;51.316;5.994;2023-03-02T10:52:26;11.32;;;6.22;;
49223;SDS011;35050;51.316;5.994;2023-03-02T10:55:05;10.48;;;6.60;;
49223;SDS011;35050;51.316;5.994;2023-03-02T10:57:39;9.57;;;6.50;;
49223;SDS011;35050;51.316;5.994;2023-03-02T11:02:51;10.65;;;6.85;;
49223;SDS011;35050;51.316;5.994;2023-03-02T11:07:59;9.20;;;6.40;;
49223;SDS011;35050;51.316;5.994;2023-03-02T11:10:49;8.98;;;5.97;;
49223;SDS011;35050;51.316;5.994;2023-03-02T11:15:56;9.05;;;5.78;;
49223;SDS011;35050;51.316;5.994;2023-03-02T11:18:42;7.93;;;5.82;;
49223;SDS011;35050;51.316;5.994;2023-03-02T11:21:21;9.38;;;6.63;;
49223;SDS011;35050;51.316;5.994;2023-03-02T11:29:05;8.90;;;6.55;;
49223;SDS011;35050;51.316;5.994;2023-03-02T11:35:04;5.70;;;4.45;;
49223;SDS011;35050;51.316;5.994;2023-03-02T11:37:35;7.05;;;5.10;;
49223;SDS011;35050;51.316;5.994;2023-03-02T11:42:53;6.20;;;4.68;;
49223;SDS011;35050;51.316;5.994;2023-03-02T11:45:23;6.15;;;5.30;;
49223;SDS011;35050;51.316;5.994;2023-03-02T11:50:59;6.57;;;5.03;;
49223;SDS011;35050;51.316;5.994;2023-03-02T11:56:21;6.88;;;4.57;;
49223;SDS011;35050;51.316;5.994;2023-03-02T11:58:51;7.43;;;5.38;;
49223;SDS011;35050;51.316;5.994;2023-03-02T12:01:21;6.93;;;5.00;;
49223;SDS011;35050;51.316;5.994;2023-03-02T12:03:49;6.50;;;4.68;;
49223;SDS011;35050;51.316;5.994;2023-03-02T12:08:47;7.80;;;5.35;;
49223;SDS011;35050;51.316;5.994;2023-03-02T12:13:41;10.00;;;6.10;;
49223;SDS011;35050;51.316;5.994;2023-03-02T12:16:18;6.50;;;4.93;;
49223;SDS011;35050;51.316;5.994;2023-03-02T12:18:58;6.75;;;4.88;;
49223;SDS011;35050;51.316;5.994;2023-03-02T12:22:02;6.10;;;4.53;;
49223;SDS011;35050;51.316;5.994;2023-03-02T12:24:33;8.45;;;4.88;;
49223;SDS011;35050;51.316;5.994;2023-03-02T12:27:03;6.25;;;4.78;;
49223;SDS011;35050;51.316;5.994;2023-03-02T12:29:45;6.68;;;4.70;;
49223;SDS011;35050;51.316;5.994;2023-03-02T12:32:27;6.40;;;5.03;;
49223;SDS011;35050;51.316;5.994;2023-03-02T12:35:08;7.18;;;5.00;;
49223;SDS011;35050;51.316;5.994;2023-03-02T12:42:57;8.02;;;5.45;;
49223;SDS011;35050;51.316;5.994;2023-03-02T12:45:51;7.75;;;4.82;;
49223;SDS011;35050;51.316;5.994;2023-03-02T12:48:46;7.53;;;5.57;;
49223;SDS011;35050;51.316;5.994;2023-03-02T12:51:21;6.10;;;4.82;;
49223;SDS011;35050;51.316;5.994;2023-03-02T12:53:49;6.22;;;4.70;;
49223;SDS011;35050;51.316;5.994;2023-03-02T12:56:25;6.95;;;4.30;;
49223;SDS011;35050;51.316;5.994;2023-03-02T12:58:51;6.40;;;4.40;;
49223;SDS011;35050;51.316;5.994;2023-03-02T13:01:25;5.35;;;4.38;;
49223;SDS011;35050;51.316;5.994;2023-03-02T13:03:55;5.75;;;4.47;;
49223;SDS011;35050;51.316;5.994;2023-03-02T13:06:22;8.52;;;5.13;;
49223;SDS011;35050;51.316;5.994;2023-03-02T13:08:52;10.82;;;8.82;;
49223;SDS011;35050;51.316;5.994;2023-03-02T13:11:20;9.13;;;7.38;;
49223;SDS011;35050;51.316;5.994;2023-03-02T13:13:50;8.13;;;6.10;;
49223;SDS011;35050;51.316;5.994;2023-03-02T13:16:23;6.25;;;5.03;;
49223;SDS011;35050;51.316;5.994;2023-03-02T13:18:54;5.30;;;4.60;;
49223;SDS011;35050;51.316;5.994;2023-03-02T13:21:33;6.28;;;5.15;;
49223;SDS011;35050;51.316;5.994;2023-03-02T13:24:03;5.30;;;4.57;;
49223;SDS011;35050;51.316;5.994;2023-03-02T13:26:53;9.48;;;4.90;;
49223;SDS011;35050;51.316;5.994;2023-03-02T13:29:24;6.75;;;5.40;;
49223;SDS011;35050;51.316;5.994;2023-03-02T13:31:51;6.00;;;4.22;;
49223;SDS011;35050;51.316;5.994;2023-03-02T13:34:22;4.85;;;3.97;;
49223;SDS011;35050;51.316;5.994;2023-03-02T13:36:53;6.45;;;3.90;;
49223;SDS011;35050;51.316;5.994;2023-03-02T13:39:25;5.45;;;3.88;;
49223;SDS011;35050;51.316;5.994;2023-03-02T13:41:53;4.95;;;3.85;;
49223;SDS011;35050;51.316;5.994;2023-03-02T13:44:25;5.28;;;4.28;;
49223;SDS011;35050;51.316;5.994;2023-03-02T13:46:55;5.03;;;4.00;;
49223;SDS011;35050;51.316;5.994;2023-03-02T13:49:26;5.80;;;4.38;;
49223;SDS011;35050;51.316;5.994;2023-03-02T13:52:35;5.40;;;4.05;;
49223;SDS011;35050;51.316;5.994;2023-03-02T13:57:16;8.30;;;4.18;;
49223;SDS011;35050;51.316;5.994;2023-03-02T13:59:48;4.68;;;3.72;;
49223;SDS011;35050;51.316;5.994;2023-03-02T14:02:27;5.75;;;4.30;;
49223;SDS011;35050;51.316;5.994;2023-03-02T14:04:55;7.90;;;4.60;;
49223;SDS011;35050;51.316;5.994;2023-03-02T14:07:21;5.82;;;4.55;;
49223;SDS011;35050;51.316;5.994;2023-03-02T14:09:47;6.07;;;4.53;;
49223;SDS011;35050;51.316;5.994;2023-03-02T14:12:28;6.32;;;4.15;;
49223;SDS011;35050;51.316;5.994;2023-03-02T14:14:56;5.90;;;4.77;;
49223;SDS011;35050;51.316;5.994;2023-03-02T14:17:24;5.70;;;3.63;;
49223;SDS011;35050;51.316;5.994;2023-03-02T14:19:50;5.30;;;4.00;;
49223;SDS011;35050;51.316;5.994;2023-03-02T14:22:20;4.82;;;3.88;;
49223;SDS011;35050;51.316;5.994;2023-03-02T14:24:47;6.22;;;4.55;;
49223;SDS011;35050;51.316;5.994;2023-03-02T14:27:16;5.65;;;4.28;;
49223;SDS011;35050;51.316;5.994;2023-03-02T14:29:43;6.43;;;4.95;;
49223;SDS011;35050;51.316;5.994;2023-03-02T14:32:11;4.32;;;3.83;;
49223;SDS011;35050;51.316;5.994;2023-03-02T14:34:39;8.98;;;4.50;;
49223;SDS011;35050;51.316;5.994;2023-03-02T14:37:06;5.88;;;4.65;;
49223;SDS011;35050;51.316;5.994;2023-03-02T14:39:36;5.97;;;4.22;;
49223;SDS011;35050;51.316;5.994;2023-03-02T14:42:04;5.70;;;3.67;;
49223;SDS011;35050;51.316;5.994;2023-03-02T14:44:34;4.47;;;3.80;;
49223;SDS011;35050;51.316;5.994;2023-03-02T14:46:59;5.78;;;4.07;;
49223;SDS011;35050;51.316;5.994;2023-03-02T14:49:25;5.00;;;3.47;;
49223;SDS011;35050;51.316;5.994;2023-03-02T14:54:22;4.18;;;3.53;;
49223;SDS011;35050;51.316;5.994;2023-03-02T14:56:47;4.22;;;3.20;;
49223;SDS011;35050;51.316;5.994;2023-03-02T14:59:13;8.00;;;3.80;;
49223;SDS011;35050;51.316;5.994;2023-03-02T15:01:39;5.18;;;4.10;;
49223;SDS011;35050;51.316;5.994;2023-03-02T15:04:08;4.70;;;4.15;;
49223;SDS011;35050;51.316;5.994;2023-03-02T15:06:36;5.28;;;3.58;;
49223;SDS011;35050;51.316;5.994;2023-03-02T15:09:03;6.10;;;4.55;;
49223;SDS011;35050;51.316;5.994;2023-03-02T15:11:28;6.70;;;3.90;;
49223;SDS011;35050;51.316;5.994;2023-03-02T15:13:54;4.97;;;3.50;;
49223;SDS011;35050;51.316;5.994;2023-03-02T15:16:21;5.30;;;3.85;;
49223;SDS011;35050;51.316;5.994;2023-03-02T15:18:47;3.95;;;3.00;;
49223;SDS011;35050;51.316;5.994;2023-03-02T15:21:15;4.13;;;3.28;;
49223;SDS011;35050;51.316;5.994;2023-03-02T15:23:42;4.10;;;3.33;;
49223;SDS011;35050;51.316;5.994;2023-03-02T15:26:09;5.07;;;3.88;;
49223;SDS011;35050;51.316;5.994;2023-03-02T15:28:36;4.53;;;3.60;;
49223;SDS011;35050;51.316;5.994;2023-03-02T15:31:09;3.30;;;2.90;;
49223;SDS011;35050;51.316;5.994;2023-03-02T15:33:39;3.60;;;3.17;;
49223;SDS011;35050;51.316;5.994;2023-03-02T15:36:06;5.97;;;3.50;;
49223;SDS011;35050;51.316;5.994;2023-03-02T15:38:33;4.65;;;3.67;;
49223;SDS011;35050;51.316;5.994;2023-03-02T15:41:06;4.55;;;3.08;;
49223;SDS011;35050;51.316;5.994;2023-03-02T15:43:34;4.95;;;3.67;;
49223;SDS011;35050;51.316;5.994;2023-03-02T15:46:00;5.55;;;4.05;;
49223;SDS011;35050;51.316;5.994;2023-03-02T15:48:26;5.10;;;4.07;;
49223;SDS011;35050;51.316;5.994;2023-03-02T15:50:58;5.03;;;3.88;;
49223;SDS011;35050;51.316;5.994;2023-03-02T15:53:29;6.15;;;4.13;;
49223;SDS011;35050;51.316;5.994;2023-03-02T15:55:56;5.03;;;3.47;;
49223;SDS011;35050;51.316;5.994;2023-03-02T15:58:22;5.32;;;4.00;;
49223;SDS011;35050;51.316;5.994;2023-03-02T16:00:48;4.90;;;3.30;;
49223;SDS011;35050;51.316;5.994;2023-03-02T16:03:14;4.95;;;3.42;;
49223;SDS011;35050;51.316;5.994;2023-03-02T16:05:40;4.78;;;3.22;;
49223;SDS011;35050;51.316;5.994;2023-03-02T16:08:06;6.68;;;3.78;;
49223;SDS011;35050;51.316;5.994;2023-03-02T16:10:32;5.18;;;3.80;;
49223;SDS011;35050;51.316;5.994;2023-03-02T16:13:00;6.32;;;4.00;;
49223;SDS011;35050;51.316;5.994;2023-03-02T16:15:30;5.70;;;4.25;;
49223;SDS011;35050;51.316;5.994;2023-03-02T16:18:01;5.30;;;4.38;;
49223;SDS011;35050;51.316;5.994;2023-03-02T16:20:26;5.43;;;3.95;;
49223;SDS011;35050;51.316;5.994;2023-03-02T16:22:52;7.15;;;4.85;;
49223;SDS011;35050;51.316;5.994;2023-03-02T16:25:17;6.32;;;4.38;;
49223;SDS011;35050;51.316;5.994;2023-03-02T16:27:43;6.10;;;4.43;;
49223;SDS011;35050;51.316;5.994;2023-03-02T16:30:11;4.95;;;3.80;;
49223;SDS011;35050;51.316;5.994;2023-03-02T16:32:39;5.70;;;4.40;;
49223;SDS011;35050;51.316;5.994;2023-03-02T16:35:05;6.57;;;5.10;;
49223;SDS011;35050;51.316;5.994;2023-03-02T16:37:32;6.13;;;4.40;;
49223;SDS011;35050;51.316;5.994;2023-03-02T16:39:58;6.60;;;4.78;;
49223;SDS011;35050;51.316;5.994;2023-03-02T16:42:23;5.78;;;4.35;;
49223;SDS011;35050;51.316;5.994;2023-03-02T16:44:50;6.35;;;4.70;;
49223;SDS011;35050;51.316;5.994;2023-03-02T16:47:15;7.78;;;5.32;;
49223;SDS011;35050;51.316;5.994;2023-03-02T16:49:41;7.15;;;4.72;;
49223;SDS011;35050;51.316;5.994;2023-03-02T16:52:07;11.18;;;8.15;;
49223;SDS011;35050;51.316;5.994;2023-03-02T16:54:32;13.52;;;10.20;;
49223;SDS011;35050;51.316;5.994;2023-03-02T16:56:58;12.60;;;8.85;;
49223;SDS011;35050;51.316;5.994;2023-03-02T16:59:23;13.52;;;9.98;;
49223;SDS011;35050;51.316;5.994;2023-03-02T17:01:49;13.00;;;9.25;;
49223;SDS011;35050;51.316;5.994;2023-03-02T17:04:15;10.13;;;7.80;;
49223;SDS011;35050;51.316;5.994;2023-03-02T17:06:43;10.40;;;8.10;;
49223;SDS011;35050;51.316;5.994;2023-03-02T17:09:11;8.80;;;6.57;;
49223;SDS011;35050;51.316;5.994;2023-03-02T17:11:37;7.32;;;6.10;;
49223;SDS011;35050;51.316;5.994;2023-03-02T17:14:03;6.50;;;5.07;;
49223;SDS011;35050;51.316;5.994;2023-03-02T17:16:28;6.85;;;4.85;;
49223;SDS011;35050;51.316;5.994;2023-03-02T17:18:54;6.90;;;5.20;;
49223;SDS011;35050;51.316;5.994;2023-03-02T17:21:20;6.90;;;5.43;;
49223;SDS011;35050;51.316;5.994;2023-03-02T17:23:46;8.57;;;6.18;;
49223;SDS011;35050;51.316;5.994;2023-03-02T17:26:12;7.20;;;5.72;;
49223;SDS011;35050;51.316;5.994;2023-03-02T17:28:38;6.40;;;4.60;;
49223;SDS011;35050;51.316;5.994;2023-03-02T17:31:04;5.72;;;4.57;;
49223;SDS011;35050;51.316;5.994;2023-03-02T17:33:30;5.65;;;4.32;;
49223;SDS011;35050;51.316;5.994;2023-03-02T17:36:00;6.00;;;4.70;;
49223;SDS011;35050;51.316;5.994;2023-03-02T17:38:27;5.28;;;4.15;;
49223;SDS011;35050;51.316;5.994;2023-03-02T17:40:53;4.82;;;4.32;;
49223;SDS011;35050;51.316;5.994;2023-03-02T17:43:18;6.10;;;4.53;;
49223;SDS011;35050;51.316;5.994;2023-03-02T17:45:44;5.32;;;4.10;;
49223;SDS011;35050;51.316;5.994;2023-03-02T17:48:10;5.22;;;4.00;;
49223;SDS011;35050;51.316;5.994;2023-03-02T17:50:36;5.15;;;4.05;;
49223;SDS011;35050;51.316;5.994;2023-03-02T17:53:02;5.72;;;4.88;;
49223;SDS011;35050;51.316;5.994;2023-03-02T17:55:27;5.85;;;4.78;;
49223;SDS011;35050;51.316;5.994;2023-03-02T17:57:53;5.80;;;4.88;;
49223;SDS011;35050;51.316;5.994;2023-03-02T18:00:19;7.68;;;5.60;;
49223;SDS011;35050;51.316;5.994;2023-03-02T18:02:47;7.07;;;5.80;;
49223;SDS011;35050;51.316;5.994;2023-03-02T18:05:13;7.55;;;5.40;;
49223;SDS011;35050;51.316;5.994;2023-03-02T18:07:38;7.30;;;4.80;;
49223;SDS011;35050;51.316;5.994;2023-03-02T18:10:05;6.60;;;5.28;;
49223;SDS011;35050;51.316;5.994;2023-03-02T18:12:31;7.63;;;5.40;;
49223;SDS011;35050;51.316;5.994;2023-03-02T18:14:57;5.43;;;4.53;;
49223;SDS011;35050;51.316;5.994;2023-03-02T18:17:23;6.72;;;5.40;;
49223;SDS011;35050;51.316;5.994;2023-03-02T18:19:48;7.57;;;5.68;;
49223;SDS011;35050;51.316;5.994;2023-03-02T18:22:14;7.35;;;5.13;;
49223;SDS011;35050;51.316;5.994;2023-03-02T18:24:40;6.65;;;5.00;;
49223;SDS011;35050;51.316;5.994;2023-03-02T18:27:06;6.78;;;5.20;;
49223;SDS011;35050;51.316;5.994;2023-03-02T18:29:31;7.85;;;4.88;;
49223;SDS011;35050;51.316;5.994;2023-03-02T18:31:57;7.57;;;5.03;;
49223;SDS011;35050;51.316;5.994;2023-03-02T18:34:24;8.23;;;5.72;;
49223;SDS011;35050;51.316;5.994;2023-03-02T18:36:49;5.50;;;4.38;;
49223;SDS011;35050;51.316;5.994;2023-03-02T18:39:15;5.70;;;4.68;;
49223;SDS011;35050;51.316;5.994;2023-03-02T18:41:41;6.70;;;4.65;;
49223;SDS011;35050;51.316;5.994;2023-03-02T18:44:07;5.50;;;4.35;;
49223;SDS011;35050;51.316;5.994;2023-03-02T18:46:34;5.43;;;4.13;;
49223;SDS011;35050;51.316;5.994;2023-03-02T18:48:59;6.10;;;5.05;;
49223;SDS011;35050;51.316;5.994;2023-03-02T18:51:28;8.18;;;5.80;;
49223;SDS011;35050;51.316;5.994;2023-03-02T18:53:53;8.57;;;6.60;;
49223;SDS011;35050;51.316;5.994;2023-03-02T18:56:20;12.52;;;9.30;;
49223;SDS011;35050;51.316;5.994;2023-03-02T18:58:46;21.58;;;14.75;;
49223;SDS011;35050;51.316;5.994;2023-03-02T19:01:13;19.05;;;14.27;;
49223;SDS011;35050;51.316;5.994;2023-03-02T19:03:39;18.02;;;12.23;;
49223;SDS011;35050;51.316;5.994;2023-03-02T19:06:09;13.20;;;9.38;;
49223;SDS011;35050;51.316;5.994;2023-03-02T19:08:36;12.30;;;8.68;;
49223;SDS011;35050;51.316;5.994;2023-03-02T19:11:02;10.20;;;7.38;;
49223;SDS011;35050;51.316;5.994;2023-03-02T19:13:29;8.15;;;6.03;;
49223;SDS011;35050;51.316;5.994;2023-03-02T19:15:55;8.40;;;5.80;;
49223;SDS011;35050;51.316;5.994;2023-03-02T19:18:21;7.05;;;5.28;;
49223;SDS011;35050;51.316;5.994;2023-03-02T19:20:49;7.18;;;5.07;;
49223;SDS011;35050;51.316;5.994;2023-03-02T19:23:18;6.88;;;5.47;;
49223;SDS011;35050;51.316;5.994;2023-03-02T19:25:44;7.97;;;5.03;;
49223;SDS011;35050;51.316;5.994;2023-03-02T19:28:10;6.82;;;5.10;;
49223;SDS011;35050;51.316;5.994;2023-03-02T19:30:35;7.57;;;5.60;;
49223;SDS011;35050;51.316;5.994;2023-03-02T19:33:02;7.03;;;5.13;;
49223;SDS011;35050;51.316;5.994;2023-03-02T19:35:31;5.85;;;4.78;;
49223;SDS011;35050;51.316;5.994;2023-03-02T19:37:58;7.45;;;5.22;;
49223;SDS011;35050;51.316;5.994;2023-03-02T19:40:24;9.07;;;6.20;;
49223;SDS011;35050;51.316;5.994;2023-03-02T19:42:51;8.98;;;5.43;;
49223;SDS011;35050;51.316;5.994;2023-03-02T19:45:19;6.97;;;5.20;;
49223;SDS011;35050;51.316;5.994;2023-03-02T19:47:46;6.53;;;4.75;;
49223;SDS011;35050;51.316;5.994;2023-03-02T19:50:13;7.00;;;4.38;;
49223;SDS011;35050;51.316;5.994;2023-03-02T19:52:40;5.78;;;4.03;;
49223;SDS011;35050;51.316;5.994;2023-03-02T19:55:06;5.53;;;4.57;;
49223;SDS011;35050;51.316;5.994;2023-03-02T19:57:37;6.72;;;4.82;;
49223;SDS011;35050;51.316;5.994;2023-03-02T20:00:08;6.30;;;4.68;;
49223;SDS011;35050;51.316;5.994;2023-03-02T20:02:39;7.63;;;4.93;;
49223;SDS011;35050;51.316;5.994;2023-03-02T20:05:05;7.30;;;5.20;;
49223;SDS011;35050;51.316;5.994;2023-03-02T20:07:32;7.55;;;6.13;;
49223;SDS011;35050;51.316;5.994;2023-03-02T20:09:57;6.85;;;4.90;;
49223;SDS011;35050;51.316;5.994;2023-03-02T20:12:23;6.10;;;5.10;;
49223;SDS011;35050;51.316;5.994;2023-03-02T20:14:49;8.93;;;5.57;;
49223;SDS011;35050;51.316;5.994;2023-03-02T20:17:16;7.97;;;5.07;;
49223;SDS011;35050;51.316;5.994;2023-03-02T20:19:43;8.00;;;6.00;;
49223;SDS011;35050;51.316;5.994;2023-03-02T20:22:11;8.68;;;6.38;;
49223;SDS011;35050;51.316;5.994;2023-03-02T20:24:37;8.38;;;5.88;;
49223;SDS011;35050;51.316;5.994;2023-03-02T20:27:03;8.55;;;5.88;;
49223;SDS011;35050;51.316;5.994;2023-03-02T20:29:35;7.10;;;5.10;;
49223;SDS011;35050;51.316;5.994;2023-03-02T20:32:03;6.90;;;5.50;;
49223;SDS011;35050;51.316;5.994;2023-03-02T20:34:31;7.47;;;5.25;;
49223;SDS011;35050;51.316;5.994;2023-03-02T20:36:57;7.38;;;5.40;;
49223;SDS011;35050;51.316;5.994;2023-03-02T20:39:25;7.35;;;5.03;;
49223;SDS011;35050;51.316;5.994;2023-03-02T20:41:56;7.33;;;5.17;;
49223;SDS011;35050;51.316;5.994;2023-03-02T20:44:22;6.85;;;5.53;;
49223;SDS011;35050;51.316;5.994;2023-03-02T20:46:51;8.88;;;6.15;;
49223;SDS011;35050;51.316;5.994;2023-03-02T20:49:21;8.55;;;5.95;;
49223;SDS011;35050;51.316;5.994;2023-03-02T20:51:48;8.13;;;5.97;;